createdAt,value
2019-01-06T00:01:01.163Z,100783.59
2019-01-06T00:03:49.844Z,100787.80
2019-01-06T00:06:37.374Z,100789.89
2019-01-06T00:09:42.328Z,100789.88
2019-01-06T00:12:49.070Z,100781.84
2019-01-06T00:15:46.683Z,100785.66
2019-01-06T00:18:33.746Z,100782.73
2019-01-06T00:21:23.490Z,100775.56
2019-01-06T00:24:15.155Z,100773.03
2019-01-06T00:27:03.025Z,100765.00
2019-01-06T00:30:00.737Z,100770.08
2019-01-06T00:32:48.344Z,100770.91
2019-01-06T00:35:38.430Z,100762.89
2019-01-06T00:38:37.830Z,100766.66
2019-01-06T00:41:35.696Z,100760.31
2019-01-06T00:44:24.412Z,100752.28
2019-01-06T00:47:11.640Z,100745.54
2019-01-06T00:49:59.001Z,100752.25
2019-01-06T00:52:50.451Z,100739.15
2019-01-06T00:55:48.009Z,100734.92
2019-01-06T00:58:39.969Z,100723.97
2019-01-06T01:01:27.134Z,100728.59
2019-01-06T01:04:28.185Z,100726.91
2019-01-06T01:07:16.115Z,100715.52
2019-01-06T01:10:14.148Z,100714.72
2019-01-06T01:13:01.523Z,100715.56
2019-01-06T01:15:48.887Z,100710.92
2019-01-06T01:18:36.325Z,100704.59
2019-01-06T01:21:34.152Z,100699.94
2019-01-06T01:24:27.182Z,100698.27
2019-01-06T01:27:14.540Z,100691.12
2019-01-06T01:30:03.300Z,100687.33
2019-01-06T01:32:55.094Z,100689.39
2019-01-06T01:35:49.883Z,100689.77
2019-01-06T01:38:56.816Z,100687.64
2019-01-06T01:41:42.982Z,100684.69
2019-01-06T01:44:40.528Z,100680.45
2019-01-06T01:47:41.561Z,100688.00
2019-01-06T01:50:30.306Z,100685.03
2019-01-06T01:53:21.702Z,100681.64
2019-01-06T01:56:25.657Z,100672.79
2019-01-06T01:59:20.183Z,100675.23
2019-01-06T02:02:14.592Z,100661.34
2019-01-06T02:05:18.334Z,100652.56
2019-01-06T02:08:06.921Z,100649.63
2019-01-06T02:11:06.628Z,100645.38
2019-01-06T02:13:58.234Z,100638.25
2019-01-06T02:16:53.261Z,100634.84
2019-01-06T02:19:41.794Z,100639.02
2019-01-06T02:22:39.622Z,100642.28
2019-01-06T02:25:42.570Z,100648.16
2019-01-06T02:28:49.327Z,100652.33
2019-01-06T02:31:56.048Z,100650.14
2019-01-06T02:34:59.771Z,100654.34
2019-01-06T02:37:46.658Z,100639.53
2019-01-06T02:40:35.651Z,100647.05
2019-01-06T02:43:21.782Z,100640.73
2019-01-06T02:46:13.825Z,100642.80
2019-01-06T02:49:14.697Z,100644.06
2019-01-06T02:52:06.320Z,100642.44
2019-01-06T02:54:55.111Z,100631.52
2019-01-06T02:57:42.338Z,100629.89
2019-01-06T03:00:49.575Z,100632.00
2019-01-06T03:03:50.545Z,100635.73
2019-01-06T03:06:37.541Z,100626.06
2019-01-06T03:09:29.957Z,100633.58
2019-01-06T03:12:17.473Z,100624.39
2019-01-06T03:15:03.238Z,100611.86
2019-01-06T03:17:50.601Z,100608.52
2019-01-06T03:20:37.861Z,100612.20
2019-01-06T03:23:20.042Z,100610.92
2019-01-06T03:26:19.133Z,100618.80
2019-01-06T03:29:06.396Z,100612.43
2019-01-06T03:31:54.089Z,100619.12
2019-01-06T03:34:38.558Z,100611.55
2019-01-06T03:37:42.654Z,100602.30
2019-01-06T03:40:34.188Z,100599.80
2019-01-06T03:43:15.887Z,100596.53
2019-01-06T03:46:17.121Z,100595.29
2019-01-06T03:49:07.194Z,100593.95
2019-01-06T03:52:04.835Z,100610.14
2019-01-06T03:54:53.521Z,100600.91
2019-01-06T03:57:54.237Z,100595.52
2019-01-06T04:00:42.189Z,100593.89
2019-01-06T04:03:37.378Z,100590.14
2019-01-06T04:06:29.445Z,100593.11
2019-01-06T04:09:19.146Z,100590.56
2019-01-06T04:12:10.877Z,100584.30
2019-01-06T04:15:02.589Z,100578.84
2019-01-06T04:18:09.865Z,100579.23
2019-01-06T04:21:03.686Z,100575.92
2019-01-06T04:23:58.581Z,100574.66
2019-01-06T04:27:00.004Z,100574.25
2019-01-06T04:29:47.899Z,100570.33
2019-01-06T04:32:45.716Z,100577.26
2019-01-06T04:35:40.667Z,100586.70
2019-01-06T04:38:29.344Z,100583.70
2019-01-06T04:41:36.097Z,100583.63
2019-01-06T04:44:24.901Z,100576.02
2019-01-06T04:47:13.645Z,100579.48
2019-01-06T04:50:00.940Z,100585.03
2019-01-06T04:52:48.618Z,100585.39
2019-01-06T04:55:49.654Z,100580.72
2019-01-06T04:58:41.408Z,100581.95
2019-01-06T05:01:28.937Z,100583.89
2019-01-06T05:04:20.471Z,100579.05
2019-01-06T05:07:07.815Z,100580.23
2019-01-06T05:10:09.096Z,100589.15
2019-01-06T05:13:13.578Z,100584.08
2019-01-06T05:15:57.052Z,100589.20
2019-01-06T05:18:44.397Z,100590.13
2019-01-06T05:21:28.597Z,100584.42
2019-01-06T05:24:15.838Z,100589.63
2019-01-06T05:26:58.969Z,100590.16
2019-01-06T05:30:00.761Z,100586.00
2019-01-06T05:32:48.584Z,100578.89
2019-01-06T05:35:49.578Z,100578.06
2019-01-06T05:38:40.184Z,100584.80
2019-01-06T05:41:28.914Z,100589.47
2019-01-06T05:44:15.894Z,100589.50
2019-01-06T05:47:16.528Z,100587.78
2019-01-06T05:50:14.603Z,100604.50
2019-01-06T05:53:01.997Z,100598.77
2019-01-06T05:55:56.739Z,100599.96
2019-01-06T05:58:45.572Z,100611.95
2019-01-06T06:01:34.124Z,100607.80
2019-01-06T06:04:22.979Z,100618.84
2019-01-06T06:07:11.439Z,100619.67
2019-01-06T06:10:04.642Z,100614.53
2019-01-06T06:12:52.591Z,100614.71
2019-01-06T06:15:40.041Z,100611.49
2019-01-06T06:18:31.643Z,100614.03
2019-01-06T06:21:31.440Z,100619.95
2019-01-06T06:24:25.724Z,100624.91
2019-01-06T06:27:22.046Z,100626.92
2019-01-06T06:30:21.549Z,100629.47
2019-01-06T06:33:34.829Z,100631.00
2019-01-06T06:36:36.845Z,100627.75
2019-01-06T06:39:59.274Z,100635.56
2019-01-06T06:42:48.061Z,100631.61
2019-01-06T06:45:49.671Z,100626.94
2019-01-06T06:48:32.324Z,100627.00
2019-01-06T06:51:30.157Z,100628.62
2019-01-06T06:54:21.746Z,100624.84
2019-01-06T06:57:45.076Z,100624.85
2019-01-06T07:00:53.371Z,100621.17
2019-01-06T07:03:57.427Z,100632.09
2019-01-06T07:06:52.554Z,100622.47
2019-01-06T07:09:44.040Z,100626.30
2019-01-06T07:12:31.506Z,100616.23
2019-01-06T07:15:18.734Z,100615.39
2019-01-06T07:18:07.457Z,100631.73
2019-01-06T07:20:57.626Z,100639.30
2019-01-06T07:23:45.134Z,100633.30
2019-01-06T07:26:46.158Z,100583.14
2019-01-06T07:29:33.859Z,100627.50
2019-01-06T07:32:21.148Z,100628.84
2019-01-06T07:35:10.058Z,100640.63
2019-01-06T07:37:57.763Z,100642.41
2019-01-06T07:40:50.779Z,100638.02
2019-01-06T07:43:42.495Z,100636.67
2019-01-06T07:46:37.292Z,100641.75
2019-01-06T07:49:28.995Z,100637.42
2019-01-06T07:52:14.802Z,100636.59
2019-01-06T07:55:14.490Z,100641.72
2019-01-06T07:58:03.089Z,100640.46
2019-01-06T08:00:55.030Z,100641.74
2019-01-06T08:03:46.008Z,100642.61
2019-01-06T08:06:33.675Z,100645.12
2019-01-06T08:09:23.218Z,100654.37
2019-01-06T08:12:11.912Z,100656.05
2019-01-06T08:15:01.103Z,100657.75
2019-01-06T08:17:48.280Z,100654.80
2019-01-06T08:20:46.538Z,100648.93
2019-01-06T08:23:33.783Z,100653.58
2019-01-06T08:26:24.011Z,100653.16
2019-01-06T08:29:15.721Z,100650.59
2019-01-06T08:31:56.347Z,100650.14
2019-01-06T08:34:44.982Z,100657.78
2019-01-06T08:37:32.526Z,100652.31
2019-01-06T08:40:27.633Z,100654.37
2019-01-06T08:43:31.229Z,100651.87
2019-01-06T08:46:18.612Z,100653.14
2019-01-06T08:49:05.864Z,100657.36
2019-01-06T08:51:54.733Z,100651.02
2019-01-06T08:54:42.557Z,100644.69
2019-01-06T08:57:26.273Z,100642.60
2019-01-06T09:00:16.271Z,100639.21
2019-01-06T09:03:11.109Z,100641.66
2019-01-06T09:05:59.945Z,100642.13
2019-01-06T09:08:48.329Z,100639.99
2019-01-06T09:11:42.631Z,100644.66
2019-01-06T09:14:39.449Z,100641.25
2019-01-06T09:17:28.487Z,100634.87
2019-01-06T09:20:26.575Z,100631.12
2019-01-06T09:23:15.320Z,100628.61
2019-01-06T09:26:02.834Z,100626.87
2019-01-06T09:28:57.816Z,100631.44
2019-01-06T09:31:48.591Z,100620.37
2019-01-06T09:34:29.086Z,100628.58
2019-01-06T09:37:16.726Z,100632.77
2019-01-06T09:40:06.738Z,100632.70
2019-01-06T09:43:13.892Z,100635.94
2019-01-06T09:46:14.771Z,100627.66
2019-01-06T09:49:03.772Z,100627.94
2019-01-06T09:52:07.813Z,100621.15
2019-01-06T09:55:00.316Z,100615.70
2019-01-06T09:57:52.538Z,100611.06
2019-01-06T10:00:41.497Z,100611.05
2019-01-06T10:03:36.113Z,100605.22
2019-01-06T10:06:23.421Z,100599.72
2019-01-06T10:09:11.265Z,100602.42
2019-01-06T10:12:15.239Z,100591.22
2019-01-06T10:15:05.374Z,100594.08
2019-01-06T10:17:51.014Z,100587.05
2019-01-06T10:20:38.471Z,100582.58
2019-01-06T10:23:25.734Z,100583.54
2019-01-06T10:26:13.036Z,100585.44
2019-01-06T10:29:04.636Z,100574.23
2019-01-06T10:31:52.048Z,100568.73
2019-01-06T10:34:39.701Z,100566.56
2019-01-06T10:37:34.656Z,100570.00
2019-01-06T10:40:30.388Z,100562.16
2019-01-06T10:43:22.271Z,100564.19
2019-01-06T10:46:18.095Z,100563.16
2019-01-06T10:49:13.481Z,100555.37
2019-01-06T10:52:11.109Z,100545.88
2019-01-06T10:55:04.171Z,100541.22
2019-01-06T10:58:02.043Z,100552.39
2019-01-06T11:01:09.217Z,100544.51
2019-01-06T11:04:00.931Z,100555.75
2019-01-06T11:06:49.598Z,100561.25
2019-01-06T11:09:47.558Z,100559.63
2019-01-06T11:12:35.469Z,100558.42
2019-01-06T11:15:23.818Z,100558.32
2019-01-06T11:18:17.779Z,100564.76
2019-01-06T11:21:16.161Z,100571.16
2019-01-06T11:24:13.950Z,100570.85
2019-01-06T11:27:14.830Z,100572.84
2019-01-06T11:30:03.655Z,100571.20
2019-01-06T11:32:56.765Z,100581.94
2019-01-06T11:35:44.084Z,100583.26
2019-01-06T11:38:45.928Z,100578.17
2019-01-06T11:41:34.667Z,100579.67
2019-01-06T11:44:36.796Z,100578.46
2019-01-06T11:47:35.784Z,100587.95
2019-01-06T11:50:24.570Z,100577.21
2019-01-06T11:53:14.611Z,100576.83
2019-01-06T11:56:02.247Z,100575.34
2019-01-06T11:59:09.750Z,100576.66
2019-01-06T12:01:57.183Z,100579.94
2019-01-06T12:05:03.750Z,100585.05
2019-01-06T12:08:05.930Z,100579.07
2019-01-06T12:10:51.133Z,100582.11
2019-01-06T12:13:44.435Z,100572.83
2019-01-06T12:16:41.909Z,100562.92
2019-01-06T12:19:36.652Z,100569.18
2019-01-06T12:22:24.374Z,100571.02
2019-01-06T12:25:13.447Z,100574.91
2019-01-06T12:28:02.686Z,100580.70
2019-01-06T12:30:56.126Z,100592.16
2019-01-06T12:33:44.902Z,100597.91
2019-01-06T12:36:32.367Z,100594.45
2019-01-06T12:39:28.893Z,100589.86
2019-01-06T12:42:17.568Z,100604.30
2019-01-06T12:45:05.745Z,100599.53
2019-01-06T12:47:58.514Z,100597.92
2019-01-06T12:50:53.453Z,100606.55
2019-01-06T12:53:40.836Z,100613.27
2019-01-06T12:56:43.081Z,100615.75
2019-01-06T12:59:30.568Z,100614.05
2019-01-06T13:02:28.968Z,100615.33
2019-01-06T13:05:16.637Z,100611.22
2019-01-06T13:08:20.507Z,100627.34
2019-01-06T13:11:07.920Z,100636.70
2019-01-06T13:13:57.074Z,100640.73
2019-01-06T13:16:44.321Z,100641.86
2019-01-06T13:19:42.408Z,100642.15
2019-01-06T13:22:40.681Z,100645.78
2019-01-06T13:25:28.040Z,100639.70
2019-01-06T13:28:34.726Z,100652.30
2019-01-06T13:31:41.822Z,100649.88
2019-01-06T13:34:34.662Z,100662.09
2019-01-06T13:37:35.632Z,100666.63
2019-01-06T13:40:31.163Z,100669.64
2019-01-06T13:43:34.964Z,100664.96
2019-01-06T13:46:27.417Z,100669.59
2019-01-06T13:49:16.241Z,100663.13
2019-01-06T13:52:18.866Z,100656.77
2019-01-06T13:55:06.486Z,100667.80
2019-01-06T13:57:53.714Z,100673.69
2019-01-06T14:00:46.431Z,100675.74
2019-01-06T14:03:44.066Z,100676.19
2019-01-06T14:06:35.689Z,100680.49
2019-01-06T14:09:24.494Z,100676.11
2019-01-06T14:12:13.134Z,100685.02
2019-01-06T14:15:17.262Z,100683.19
2019-01-06T14:18:06.056Z,100689.62
2019-01-06T14:20:53.702Z,100690.00
2019-01-06T14:23:42.574Z,100695.07
2019-01-06T14:26:48.710Z,100688.34
2019-01-06T14:29:36.455Z,100705.64
2019-01-06T14:32:37.594Z,100703.56
2019-01-06T14:35:26.557Z,100712.45
2019-01-06T14:38:06.771Z,100715.42
2019-01-06T14:41:13.632Z,100725.19
2019-01-06T14:44:03.290Z,100728.19
2019-01-06T14:46:54.811Z,100721.89
2019-01-06T14:49:52.443Z,100745.25
2019-01-06T14:52:59.045Z,100752.05
2019-01-06T14:55:56.711Z,100751.70
2019-01-06T14:58:56.682Z,100764.95
2019-01-06T15:01:49.528Z,100768.47
2019-01-06T15:04:47.015Z,100767.22
2019-01-06T15:07:44.863Z,100767.64
2019-01-06T15:10:40.808Z,100763.45
2019-01-06T15:13:37.257Z,100773.69
2019-01-06T15:16:24.202Z,100775.89
2019-01-06T15:19:18.782Z,100766.23
2019-01-06T15:22:05.806Z,100783.55
2019-01-06T15:24:54.432Z,100801.41
2019-01-06T15:27:43.802Z,100796.30
2019-01-06T15:30:37.287Z,100801.04
2019-01-06T15:33:34.849Z,100804.00
2019-01-06T15:36:22.350Z,100812.49
2019-01-06T15:39:19.737Z,100822.64
2019-01-06T15:42:12.840Z,100823.91
2019-01-06T15:45:01.465Z,100816.27
2019-01-06T15:47:59.917Z,100824.82
2019-01-06T15:50:47.187Z,100832.05
2019-01-06T15:53:39.116Z,100836.30
2019-01-06T15:56:26.874Z,100842.74
2019-01-06T15:59:18.613Z,100846.19
2019-01-06T16:02:05.147Z,100846.56
2019-01-06T16:05:09.280Z,100848.25
2019-01-06T16:08:16.275Z,100849.09
2019-01-06T16:11:17.111Z,100844.48
2019-01-06T16:14:05.856Z,100848.27
2019-01-06T16:17:00.542Z,100854.27
2019-01-06T16:19:50.746Z,100857.24
2019-01-06T16:22:44.481Z,100858.89
2019-01-06T16:25:31.722Z,100859.78
2019-01-06T16:28:19.195Z,100858.94
2019-01-06T16:31:13.852Z,100867.31
2019-01-06T16:34:02.557Z,100864.77
2019-01-06T16:37:07.207Z,100867.27
2019-01-06T16:39:55.638Z,100870.66
2019-01-06T16:42:56.732Z,100872.30
2019-01-06T16:45:45.678Z,100877.23
2019-01-06T16:48:50.507Z,100890.34
2019-01-06T16:51:39.111Z,100893.33
2019-01-06T16:54:30.912Z,100888.78
2019-01-06T16:57:25.821Z,100903.47
2019-01-06T17:00:19.789Z,100902.68
2019-01-06T17:03:08.712Z,100906.77
2019-01-06T17:05:56.594Z,100903.38
2019-01-06T17:08:54.103Z,100916.67
2019-01-06T17:11:44.851Z,100922.19
2019-01-06T17:14:42.512Z,100933.83
2019-01-06T17:17:43.182Z,100915.45
2019-01-06T17:20:30.515Z,100916.84
2019-01-06T17:23:19.465Z,100935.11
2019-01-06T17:26:23.732Z,100929.64
2019-01-06T17:29:18.732Z,100944.94
2019-01-06T17:32:10.475Z,100938.50
2019-01-06T17:34:59.492Z,100941.96
2019-01-06T17:37:54.150Z,100957.75
2019-01-06T17:40:41.502Z,100947.91
2019-01-06T17:43:29.003Z,100952.91
2019-01-06T17:46:23.700Z,100954.28
2019-01-06T17:49:15.361Z,100960.38
2019-01-06T17:52:02.759Z,100964.27
2019-01-06T17:54:51.550Z,100975.79
2019-01-06T17:57:40.180Z,100982.95
2019-01-06T18:00:39.215Z,100988.45
2019-01-06T18:03:27.920Z,100982.64
2019-01-06T18:06:15.596Z,100999.11
2019-01-06T18:09:02.922Z,100976.64
2019-01-06T18:12:03.835Z,100998.64
2019-01-06T18:14:59.791Z,101009.83
2019-01-06T18:17:57.428Z,100988.53
2019-01-06T18:20:44.771Z,101017.00
2019-01-06T18:23:42.517Z,101014.83
2019-01-06T18:26:29.960Z,101011.61
2019-01-06T18:29:17.665Z,101000.86
2019-01-06T18:32:04.836Z,101006.98
2019-01-06T18:34:56.712Z,101019.68
2019-01-06T18:37:44.387Z,101024.36
2019-01-06T18:40:42.320Z,101017.61
2019-01-06T18:43:29.603Z,101023.50
2019-01-06T18:46:16.886Z,101042.71
2019-01-06T18:49:14.515Z,101034.98
2019-01-06T18:52:09.596Z,101029.93
2019-01-06T18:54:57.093Z,101040.97
2019-01-06T18:57:45.588Z,101043.60
2019-01-06T19:00:33.724Z,101050.78
2019-01-06T19:03:28.563Z,101058.08
2019-01-06T19:06:32.229Z,101063.33
2019-01-06T19:09:19.680Z,101063.60
2019-01-06T19:12:23.470Z,101059.04
2019-01-06T19:15:10.952Z,101061.33
2019-01-06T19:18:04.167Z,101060.19
2019-01-06T19:20:51.957Z,101055.91
2019-01-06T19:23:46.595Z,101057.58
2019-01-06T19:26:41.202Z,101056.30
2019-01-06T19:29:28.921Z,101051.64
2019-01-06T19:32:17.664Z,101060.97
2019-01-06T19:35:07.412Z,101066.78
2019-01-06T19:38:01.949Z,101067.24
2019-01-06T19:41:09.033Z,101071.88
2019-01-06T19:43:54.603Z,101066.75
2019-01-06T19:47:00.433Z,101070.22
2019-01-06T19:49:47.867Z,101068.95
2019-01-06T19:52:35.380Z,101068.16
2019-01-06T19:55:33.197Z,101077.62
2019-01-06T19:58:20.751Z,101074.19
2019-01-06T20:01:07.963Z,101072.77
2019-01-06T20:03:56.412Z,101082.95
2019-01-06T20:06:43.646Z,101088.56
2019-01-06T20:09:38.419Z,101085.59
2019-01-06T20:12:26.015Z,101090.63
2019-01-06T20:15:13.193Z,101096.17
2019-01-06T20:18:01.906Z,101102.52
2019-01-06T20:20:49.448Z,101103.75
2019-01-06T20:23:36.761Z,101107.63
2019-01-06T20:26:28.540Z,101114.96
2019-01-06T20:29:16.117Z,101116.95
2019-01-06T20:32:22.982Z,101118.70
2019-01-06T20:35:10.274Z,101131.51
2019-01-06T20:37:57.887Z,101130.69
2019-01-06T20:40:46.764Z,101126.81
2019-01-06T20:43:44.733Z,101128.88
2019-01-06T20:46:47.859Z,101134.88
2019-01-06T20:49:48.303Z,101139.61
2019-01-06T20:52:41.768Z,101141.27
2019-01-06T20:55:26.412Z,101147.64
2019-01-06T20:58:14.026Z,101155.77
2019-01-06T21:01:02.788Z,101158.70
2019-01-06T21:03:54.326Z,101163.87
2019-01-06T21:06:43.297Z,101156.17
2019-01-06T21:09:50.522Z,101156.15
2019-01-06T21:12:39.648Z,101161.64
2019-01-06T21:15:40.951Z,101165.44
2019-01-06T21:18:33.751Z,101166.76
2019-01-06T21:21:23.963Z,101168.53
2019-01-06T21:24:18.857Z,101166.33
2019-01-06T21:27:04.540Z,101171.38
2019-01-06T21:29:47.918Z,101168.00
2019-01-06T21:32:45.395Z,101171.09
2019-01-06T21:35:46.142Z,101170.66
2019-01-06T21:38:34.729Z,101178.23
2019-01-06T21:41:21.872Z,101162.63
2019-01-06T21:44:10.582Z,101160.97
2019-01-06T21:46:58.264Z,101149.40
2019-01-06T21:49:46.982Z,101152.82
2019-01-06T21:52:53.869Z,101156.67
2019-01-06T21:55:45.764Z,101143.59
2019-01-06T21:58:46.420Z,101145.72
2019-01-06T22:01:41.380Z,101152.53
2019-01-06T22:04:29.806Z,101157.55
2019-01-06T22:07:21.560Z,101167.68
2019-01-06T22:10:08.157Z,101171.98
2019-01-06T22:13:02.767Z,101168.59
2019-01-06T22:15:54.523Z,101157.09
2019-01-06T22:18:46.381Z,101151.19
2019-01-06T22:21:41.228Z,101159.29
2019-01-06T22:24:23.539Z,101152.96
2019-01-06T22:27:26.398Z,101155.55
2019-01-06T22:30:30.446Z,101155.16
2019-01-06T22:33:24.992Z,101159.42
2019-01-06T22:36:12.118Z,101158.98
2019-01-06T22:38:59.812Z,101161.12
2019-01-06T22:41:51.373Z,101164.52
2019-01-06T22:44:39.075Z,101159.42
2019-01-06T22:47:37.404Z,101159.41
2019-01-06T22:50:35.053Z,101158.56
2019-01-06T22:53:28.452Z,101167.91
2019-01-06T22:56:15.746Z,101167.05
2019-01-06T22:59:04.934Z,101166.67
2019-01-06T23:01:52.216Z,101167.95
2019-01-06T23:04:40.930Z,101172.18
2019-01-06T23:07:29.635Z,101164.14
2019-01-06T23:10:21.534Z,101158.62
2019-01-06T23:13:08.063Z,101157.77
2019-01-06T23:16:11.904Z,101164.55
2019-01-06T23:18:59.416Z,101157.34
2019-01-06T23:22:06.087Z,101156.92
2019-01-06T23:24:58.241Z,101164.98
2019-01-06T23:27:56.068Z,101165.42
2019-01-06T23:30:56.676Z,101159.49
2019-01-06T23:33:57.557Z,101162.45
2019-01-06T23:36:47.706Z,101161.19
2019-01-06T23:39:48.284Z,101171.33
2019-01-06T23:42:46.259Z,101166.69
2019-01-06T23:45:33.793Z,101173.91
2019-01-06T23:48:28.756Z,101176.42
2019-01-06T23:51:22.127Z,101180.23
2019-01-06T23:54:19.913Z,101182.34
2019-01-06T23:57:11.398Z,101183.17
